sensor_id;sensor_type;location;lat;lon;timestamp;pressure;altitude;pressure_sealevel;temperature;humidity
56944;BME280;42848;42.524;12.052;2022-12-19T00:01:26;98218.03;;;7.74;100.00
56944;BME280;42848;42.524;12.052;2022-12-19T00:03:53;98208.88;;;7.85;100.00
56944;BME280;42848;42.524;12.052;2022-12-19T00:06:21;98214.63;;;8.04;100.00
56944;BME280;42848;42.524;12.052;2022-12-19T00:08:49;98209.34;;;7.66;100.00
56944;BME280;42848;42.524;12.052;2022-12-19T00:11:16;98208.84;;;7.75;100.00
56944;BME280;42848;42.524;12.052;2022-12-19T00:13:42;98205.09;;;7.86;100.00
56944;BME280;42848;42.524;12.052;2022-12-19T00:16:13;98204.06;;;8.02;100.00
56944;BME280;42848;42.524;12.052;2022-12-19T00:18:40;98195.97;;;7.97;100.00
56944;BME280;42848;42.524;12.052;2022-12-19T00:21:06;98197.88;;;8.12;100.00
56944;BME280;42848;42.524;12.052;2022-12-19T00:23:34;98188.38;;;7.99;100.00
56944;BME280;42848;42.524;12.052;2022-12-19T00:26:07;98192.66;;;7.85;100.00
56944;BME280;42848;42.524;12.052;2022-12-19T00:28:33;98182.41;;;7.82;100.00
56944;BME280;42848;42.524;12.052;2022-12-19T00:31:00;98179.72;;;7.87;100.00
56944;BME280;42848;42.524;12.052;2022-12-19T00:33:26;98183.25;;;7.97;100.00
56944;BME280;42848;42.524;12.052;2022-12-19T00:35:59;98184.03;;;7.93;100.00
56944;BME280;42848;42.524;12.052;2022-12-19T00:38:26;98185.66;;;7.94;100.00
56944;BME280;42848;42.524;12.052;2022-12-19T00:40:52;98181.88;;;7.90;100.00
56944;BME280;42848;42.524;12.052;2022-12-19T00:43:18;98178.06;;;7.86;100.00
56944;BME280;42848;42.524;12.052;2022-12-19T00:45:44;98178.09;;;7.91;100.00
56944;BME280;42848;42.524;12.052;2022-12-19T00:48:09;98180.44;;;7.67;100.00
56944;BME280;42848;42.524;12.052;2022-12-19T00:50:35;98174.31;;;7.92;100.00
56944;BME280;42848;42.524;12.052;2022-12-19T00:53:01;98167.81;;;7.93;100.00
56944;BME280;42848;42.524;12.052;2022-12-19T00:55:26;98173.75;;;7.85;100.00
56944;BME280;42848;42.524;12.052;2022-12-19T00:57:52;98167.25;;;7.86;100.00
56944;BME280;42848;42.524;12.052;2022-12-19T01:00:17;98175.94;;;7.88;100.00
56944;BME280;42848;42.524;12.052;2022-12-19T01:02:44;98186.63;;;7.57;100.00
56944;BME280;42848;42.524;12.052;2022-12-19T01:05:10;98186.13;;;7.65;100.00
56944;BME280;42848;42.524;12.052;2022-12-19T01:07:36;98191.00;;;7.74;100.00
56944;BME280;42848;42.524;12.052;2022-12-19T01:10:02;98188.47;;;7.41;100.00
56944;BME280;42848;42.524;12.052;2022-12-19T01:12:28;98189.28;;;7.42;100.00
56944;BME280;42848;42.524;12.052;2022-12-19T01:15:17;98190.53;;;7.24;100.00
56944;BME280;42848;42.524;12.052;2022-12-19T01:17:46;98191.84;;;7.17;100.00
56944;BME280;42848;42.524;12.052;2022-12-19T01:20:17;98197.78;;;7.19;100.00
56944;BME280;42848;42.524;12.052;2022-12-19T01:22:43;98195.63;;;7.16;100.00
56944;BME280;42848;42.524;12.052;2022-12-19T01:25:09;98199.97;;;7.22;100.00
56944;BME280;42848;42.524;12.052;2022-12-19T01:27:35;98201.63;;;7.23;100.00
56944;BME280;42848;42.524;12.052;2022-12-19T01:30:01;98196.31;;;7.48;100.00
56944;BME280;42848;42.524;12.052;2022-12-19T01:32:27;98197.88;;;7.39;100.00
56944;BME280;42848;42.524;12.052;2022-12-19T01:34:53;98196.28;;;7.38;100.00
56944;BME280;42848;42.524;12.052;2022-12-19T01:37:19;98208.16;;;7.37;100.00
56944;BME280;42848;42.524;12.052;2022-12-19T01:39:45;98198.97;;;7.33;100.00
56944;BME280;42848;42.524;12.052;2022-12-19T01:42:19;98197.25;;;7.22;100.00
56944;BME280;42848;42.524;12.052;2022-12-19T01:47:47;98204.31;;;7.28;100.00
56944;BME280;42848;42.524;12.052;2022-12-19T01:50:22;98205.44;;;7.32;100.00
56944;BME280;42848;42.524;12.052;2022-12-19T01:52:50;98211.97;;;7.41;100.00
56944;BME280;42848;42.524;12.052;2022-12-19T01:55:17;98207.69;;;7.55;100.00
56944;BME280;42848;42.524;12.052;2022-12-19T01:57:42;98209.22;;;7.36;100.00
56944;BME280;42848;42.524;12.052;2022-12-19T02:00:08;98208.16;;;7.37;100.00
56944;BME280;42848;42.524;12.052;2022-12-19T02:02:42;98191.66;;;7.33;100.00
56944;BME280;42848;42.524;12.052;2022-12-19T02:05:09;98184.91;;;7.36;100.00
56944;BME280;42848;42.524;12.052;2022-12-19T02:07:36;98191.41;;;7.40;100.00
56944;BME280;42848;42.524;12.052;2022-12-19T02:10:03;98184.53;;;7.69;100.00
56944;BME280;42848;42.524;12.052;2022-12-19T02:12:32;98192.53;;;7.44;100.00
56944;BME280;42848;42.524;12.052;2022-12-19T02:14:59;98189.06;;;7.59;100.00
56944;BME280;42848;42.524;12.052;2022-12-19T02:17:41;98187.75;;;7.66;100.00
56944;BME280;42848;42.524;12.052;2022-12-19T02:23:01;98185.03;;;7.66;100.00
56944;BME280;42848;42.524;12.052;2022-12-19T02:25:57;98184.19;;;7.56;100.00
56944;BME280;42848;42.524;12.052;2022-12-19T02:31:27;98173.13;;;7.52;100.00
56944;BME280;42848;42.524;12.052;2022-12-19T02:36:39;98172.50;;;7.40;100.00
56944;BME280;42848;42.524;12.052;2022-12-19T02:42:05;98175.25;;;7.45;100.00
56944;BME280;42848;42.524;12.052;2022-12-19T02:44:42;98176.78;;;7.26;100.00
56944;BME280;42848;42.524;12.052;2022-12-19T02:47:10;98177.94;;;7.45;100.00
56944;BME280;42848;42.524;12.052;2022-12-19T02:49:36;98186.00;;;7.40;100.00
56944;BME280;42848;42.524;12.052;2022-12-19T02:54:49;98183.84;;;7.37;100.00
56944;BME280;42848;42.524;12.052;2022-12-19T03:00:15;98184.38;;;7.34;100.00
56944;BME280;42848;42.524;12.052;2022-12-19T03:05:29;98191.38;;;7.30;100.00
56944;BME280;42848;42.524;12.052;2022-12-19T03:10:54;98195.41;;;6.85;100.00
56944;BME280;42848;42.524;12.052;2022-12-19T03:13:28;98193.22;;;6.77;100.00
56944;BME280;42848;42.524;12.052;2022-12-19T03:15:56;98201.44;;;6.97;100.00
56944;BME280;42848;42.524;12.052;2022-12-19T03:18:22;98197.69;;;7.03;100.00
56944;BME280;42848;42.524;12.052;2022-12-19T03:20:53;98190.66;;;7.02;100.00
56944;BME280;42848;42.524;12.052;2022-12-19T03:23:19;98195.13;;;7.24;100.00
56944;BME280;42848;42.524;12.052;2022-12-19T03:25:49;98189.03;;;7.01;100.00
56944;BME280;42848;42.524;12.052;2022-12-19T03:28:46;98191.84;;;7.17;100.00
56944;BME280;42848;42.524;12.052;2022-12-19T03:31:16;98182.13;;;7.21;100.00
56944;BME280;42848;42.524;12.052;2022-12-19T03:33:46;98199.78;;;7.38;100.00
56944;BME280;42848;42.524;12.052;2022-12-19T03:36:18;98198.97;;;7.38;100.00
56944;BME280;42848;42.524;12.052;2022-12-19T03:38:47;98187.47;;;7.05;100.00
56944;BME280;42848;42.524;12.052;2022-12-19T03:41:14;98189.25;;;7.32;100.00
56944;BME280;42848;42.524;12.052;2022-12-19T03:44:03;98177.31;;;7.28;100.00
56944;BME280;42848;42.524;12.052;2022-12-19T03:46:29;98181.63;;;7.24;100.00
56944;BME280;42848;42.524;12.052;2022-12-19T03:48:55;98181.00;;;7.06;100.00
56944;BME280;42848;42.524;12.052;2022-12-19T03:51:49;98187.78;;;7.14;100.00
56944;BME280;42848;42.524;12.052;2022-12-19T03:54:30;98175.38;;;6.76;100.00
56944;BME280;42848;42.524;12.052;2022-12-19T03:57:18;98179.84;;;6.97;100.00
56944;BME280;42848;42.524;12.052;2022-12-19T03:59:51;98188.66;;;7.25;100.00
56944;BME280;42848;42.524;12.052;2022-12-19T04:02:20;98185.41;;;7.28;100.00
56944;BME280;42848;42.524;12.052;2022-12-19T04:04:51;98176.34;;;6.97;100.00
56944;BME280;42848;42.524;12.052;2022-12-19T04:07:18;98185.31;;;7.12;100.00
56944;BME280;42848;42.524;12.052;2022-12-19T04:09:46;98182.56;;;7.02;100.00
56944;BME280;42848;42.524;12.052;2022-12-19T04:12:20;98185.53;;;7.01;100.00
56944;BME280;42848;42.524;12.052;2022-12-19T04:14:47;98187.41;;;7.00;100.00
56944;BME280;42848;42.524;12.052;2022-12-19T04:20:08;98198.09;;;6.80;100.00
56944;BME280;42848;42.524;12.052;2022-12-19T04:22:48;98199.50;;;6.50;100.00
56944;BME280;42848;42.524;12.052;2022-12-19T04:25:21;98202.63;;;6.74;100.00
56944;BME280;42848;42.524;12.052;2022-12-19T04:27:52;98204.09;;;6.87;100.00
56944;BME280;42848;42.524;12.052;2022-12-19T04:30:18;98197.06;;;6.86;100.00
56944;BME280;42848;42.524;12.052;2022-12-19T04:32:45;98200.31;;;6.93;100.00
56944;BME280;42848;42.524;12.052;2022-12-19T04:35:11;98199.25;;;6.94;100.00
56944;BME280;42848;42.524;12.052;2022-12-19T04:37:38;98192.16;;;6.83;100.00
56944;BME280;42848;42.524;12.052;2022-12-19T04:40:05;98190.47;;;6.72;100.00
56944;BME280;42848;42.524;12.052;2022-12-19T04:42:32;98199.72;;;6.81;100.00
56944;BME280;42848;42.524;12.052;2022-12-19T04:44:58;98198.41;;;6.89;100.00
56944;BME280;42848;42.524;12.052;2022-12-19T04:47:24;98192.09;;;6.73;100.00
56944;BME280;42848;42.524;12.052;2022-12-19T04:49:49;98196.53;;;6.52;100.00
56944;BME280;42848;42.524;12.052;2022-12-19T04:52:15;98202.66;;;6.42;100.00
56944;BME280;42848;42.524;12.052;2022-12-19T04:54:41;98202.66;;;6.42;100.00
56944;BME280;42848;42.524;12.052;2022-12-19T04:57:06;98199.44;;;6.45;100.00
56944;BME280;42848;42.524;12.052;2022-12-19T04:59:32;98189.78;;;6.54;100.00
56944;BME280;42848;42.524;12.052;2022-12-19T05:01:58;98195.34;;;6.75;100.00
56944;BME280;42848;42.524;12.052;2022-12-19T05:04:23;98201.56;;;6.75;100.00
56944;BME280;42848;42.524;12.052;2022-12-19T05:06:49;98200.59;;;6.92;100.00
56944;BME280;42848;42.524;12.052;2022-12-19T05:09:15;98201.75;;;6.64;100.00
56944;BME280;42848;42.524;12.052;2022-12-19T05:11:40;98204.03;;;6.82;100.00
56944;BME280;42848;42.524;12.052;2022-12-19T05:14:06;98215.97;;;6.91;100.00
56944;BME280;42848;42.524;12.052;2022-12-19T05:16:32;98213.47;;;6.79;100.00
56944;BME280;42848;42.524;12.052;2022-12-19T05:18:57;98214.56;;;6.83;100.00
56944;BME280;42848;42.524;12.052;2022-12-19T05:21:23;98211.09;;;6.88;100.00
56944;BME280;42848;42.524;12.052;2022-12-19T05:23:49;98214.91;;;6.92;100.00
56944;BME280;42848;42.524;12.052;2022-12-19T05:26:15;98210.19;;;7.15;100.00
56944;BME280;42848;42.524;12.052;2022-12-19T05:28:41;98210.00;;;7.31;100.00
56944;BME280;42848;42.524;12.052;2022-12-19T05:31:16;98209.63;;;7.07;100.00
56944;BME280;42848;42.524;12.052;2022-12-19T05:33:43;98208.59;;;7.13;100.00
56944;BME280;42848;42.524;12.052;2022-12-19T05:36:10;98211.03;;;6.78;100.00
56944;BME280;42848;42.524;12.052;2022-12-19T05:38:36;98215.44;;;6.94;100.00
56944;BME280;42848;42.524;12.052;2022-12-19T05:41:18;98206.13;;;6.75;100.00
56944;BME280;42848;42.524;12.052;2022-12-19T05:43:49;98209.03;;;7.00;100.00
56944;BME280;42848;42.524;12.052;2022-12-19T05:46:15;98203.22;;;6.81;100.00
56944;BME280;42848;42.524;12.052;2022-12-19T05:48:41;98202.69;;;6.79;100.00
56944;BME280;42848;42.524;12.052;2022-12-19T05:51:07;98209.00;;;6.95;100.00
56944;BME280;42848;42.524;12.052;2022-12-19T05:53:37;98198.63;;;6.77;100.00
56944;BME280;42848;42.524;12.052;2022-12-19T05:56:10;98206.03;;;6.97;100.00
56944;BME280;42848;42.524;12.052;2022-12-19T05:58:37;98204.66;;;6.94;100.00
56944;BME280;42848;42.524;12.052;2022-12-19T06:01:08;98202.38;;;6.76;100.00
56944;BME280;42848;42.524;12.052;2022-12-19T06:03:34;98209.25;;;6.94;100.00
56944;BME280;42848;42.524;12.052;2022-12-19T06:06:05;98219.16;;;6.83;100.00
56944;BME280;42848;42.524;12.052;2022-12-19T06:08:32;98219.13;;;6.46;100.00
56944;BME280;42848;42.524;12.052;2022-12-19T06:11:02;98212.13;;;6.77;100.00
56944;BME280;42848;42.524;12.052;2022-12-19T06:13:29;98219.97;;;6.83;100.00
56944;BME280;42848;42.524;12.052;2022-12-19T06:15:59;98215.91;;;6.81;100.00
56944;BME280;42848;42.524;12.052;2022-12-19T06:18:25;98210.66;;;6.64;100.00
56944;BME280;42848;42.524;12.052;2022-12-19T06:21:11;98213.13;;;6.71;100.00
56944;BME280;42848;42.524;12.052;2022-12-19T06:23:38;98220.53;;;6.53;100.00
56944;BME280;42848;42.524;12.052;2022-12-19T06:26:05;98218.72;;;6.59;100.00
56944;BME280;42848;42.524;12.052;2022-12-19T06:28:32;98216.56;;;6.61;100.00
56944;BME280;42848;42.524;12.052;2022-12-19T06:30:59;98216.47;;;6.83;100.00
56944;BME280;42848;42.524;12.052;2022-12-19T06:33:26;98218.06;;;6.84;100.00
56944;BME280;42848;42.524;12.052;2022-12-19T06:35:57;98213.09;;;6.66;100.00
56944;BME280;42848;42.524;12.052;2022-12-19T06:38:24;98209.63;;;6.70;100.00
56944;BME280;42848;42.524;12.052;2022-12-19T06:40:49;98211.47;;;6.65;100.00
56944;BME280;42848;42.524;12.052;2022-12-19T06:43:33;98214.31;;;6.85;100.00
56944;BME280;42848;42.524;12.052;2022-12-19T06:45:59;98218.41;;;6.93;100.00
56944;BME280;42848;42.524;12.052;2022-12-19T06:48:26;98214.31;;;6.85;100.00
56944;BME280;42848;42.524;12.052;2022-12-19T06:50:52;98213.31;;;6.59;100.00
56944;BME280;42848;42.524;12.052;2022-12-19T06:53:18;98222.53;;;6.36;100.00
56944;BME280;42848;42.524;12.052;2022-12-19T06:55:45;98218.88;;;6.47;100.00
56944;BME280;42848;42.524;12.052;2022-12-19T06:58:10;98222.97;;;6.55;100.00
56944;BME280;42848;42.524;12.052;2022-12-19T07:00:36;98228.50;;;6.70;100.00
56944;BME280;42848;42.524;12.052;2022-12-19T07:03:04;98225.81;;;6.70;100.00
56944;BME280;42848;42.524;12.052;2022-12-19T07:05:32;98232.03;;;6.76;100.00
56944;BME280;42848;42.524;12.052;2022-12-19T07:07:58;98227.47;;;6.76;100.00
56944;BME280;42848;42.524;12.052;2022-12-19T07:10:23;98229.44;;;6.86;100.00
56944;BME280;42848;42.524;12.052;2022-12-19T07:12:49;98224.88;;;6.92;100.00
56944;BME280;42848;42.524;12.052;2022-12-19T07:15:15;98229.53;;;6.96;100.00
56944;BME280;42848;42.524;12.052;2022-12-19T07:17:41;98227.91;;;6.95;100.00
56944;BME280;42848;42.524;12.052;2022-12-19T07:20:07;98232.78;;;6.98;100.00
56944;BME280;42848;42.524;12.052;2022-12-19T07:22:34;98235.00;;;7.11;100.00
56944;BME280;42848;42.524;12.052;2022-12-19T07:25:02;98240.69;;;7.10;100.00
56944;BME280;42848;42.524;12.052;2022-12-19T07:27:28;98233.44;;;7.16;100.00
56944;BME280;42848;42.524;12.052;2022-12-19T07:29:54;98237.84;;;7.32;100.00
56944;BME280;42848;42.524;12.052;2022-12-19T07:32:20;98242.25;;;7.48;100.00
56944;BME280;42848;42.524;12.052;2022-12-19T07:34:46;98241.69;;;7.46;100.00
56944;BME280;42848;42.524;12.052;2022-12-19T07:37:12;98241.66;;;7.36;100.00
56944;BME280;42848;42.524;12.052;2022-12-19T07:39:37;98246.38;;;7.61;100.00
56944;BME280;42848;42.524;12.052;2022-12-19T07:42:03;98240.03;;;7.40;100.00
56944;BME280;42848;42.524;12.052;2022-12-19T07:44:29;98242.78;;;7.45;100.00
56944;BME280;42848;42.524;12.052;2022-12-19T07:46:55;98254.56;;;7.29;100.00
56944;BME280;42848;42.524;12.052;2022-12-19T07:49:20;98252.81;;;7.07;100.00
56944;BME280;42848;42.524;12.052;2022-12-19T07:51:46;98260.00;;;7.34;100.00
56944;BME280;42848;42.524;12.052;2022-12-19T07:54:12;98252.78;;;7.45;100.00
56944;BME280;42848;42.524;12.052;2022-12-19T07:56:38;98259.47;;;7.37;100.00
56944;BME280;42848;42.524;12.052;2022-12-19T07:59:03;98265.31;;;7.19;100.00
56944;BME280;42848;42.524;12.052;2022-12-19T08:01:29;98266.44;;;7.28;100.00
56944;BME280;42848;42.524;12.052;2022-12-19T08:03:55;98268.06;;;7.29;100.00
56944;BME280;42848;42.524;12.052;2022-12-19T08:06:20;98268.41;;;7.37;100.00
56944;BME280;42848;42.524;12.052;2022-12-19T08:08:46;98265.22;;;7.46;100.00
56944;BME280;42848;42.524;12.052;2022-12-19T08:11:18;98263.22;;;7.31;100.00
56944;BME280;42848;42.524;12.052;2022-12-19T08:13:50;98268.34;;;7.27;100.00
56944;BME280;42848;42.524;12.052;2022-12-19T08:16:16;98263.84;;;7.48;100.00
56944;BME280;42848;42.524;12.052;2022-12-19T08:18:42;98279.03;;;7.54;100.00
56944;BME280;42848;42.524;12.052;2022-12-19T08:21:08;98279.91;;;7.65;100.00
56944;BME280;42848;42.524;12.052;2022-12-19T08:23:34;98285.53;;;7.58;100.00
56944;BME280;42848;42.524;12.052;2022-12-19T08:26:05;98285.88;;;7.72;100.00
56944;BME280;42848;42.524;12.052;2022-12-19T08:28:32;98282.91;;;7.74;100.00
56944;BME280;42848;42.524;12.052;2022-12-19T08:31:09;98280.25;;;7.79;100.00
56944;BME280;42848;42.524;12.052;2022-12-19T08:33:35;98281.38;;;7.93;100.00
56944;BME280;42848;42.524;12.052;2022-12-19T08:36:06;98284.09;;;7.93;100.00
56944;BME280;42848;42.524;12.052;2022-12-19T08:38:33;98286.31;;;8.06;100.00
56944;BME280;42848;42.524;12.052;2022-12-19T08:40:59;98283.34;;;8.13;100.00
56944;BME280;42848;42.524;12.052;2022-12-19T08:43:25;98289.06;;;8.26;100.00
56944;BME280;42848;42.524;12.052;2022-12-19T08:45:51;98285.53;;;8.21;100.00
56944;BME280;42848;42.524;12.052;2022-12-19T08:48:17;98282.03;;;8.31;100.00
56944;BME280;42848;42.524;12.052;2022-12-19T08:50:54;98288.59;;;8.35;100.00
56944;BME280;42848;42.524;12.052;2022-12-19T08:53:22;98291.84;;;8.37;100.00
56944;BME280;42848;42.524;12.052;2022-12-19T08:55:56;98293.50;;;8.43;100.00
56944;BME280;42848;42.524;12.052;2022-12-19T08:58:23;98293.75;;;8.41;100.00
56944;BME280;42848;42.524;12.052;2022-12-19T09:00:49;98288.63;;;8.55;100.00
56944;BME280;42848;42.524;12.052;2022-12-19T09:03:17;98296.78;;;8.60;100.00
56944;BME280;42848;42.524;12.052;2022-12-19T09:05:42;98297.31;;;8.67;100.00
56944;BME280;42848;42.524;12.052;2022-12-19T09:08:08;98301.38;;;8.70;100.00
56944;BME280;42848;42.524;12.052;2022-12-19T09:10:37;98303.28;;;8.74;100.00
56944;BME280;42848;42.524;12.052;2022-12-19T09:13:04;98303.81;;;8.71;100.00
56944;BME280;42848;42.524;12.052;2022-12-19T09:15:29;98308.97;;;8.78;100.00
56944;BME280;42848;42.524;12.052;2022-12-19T09:17:55;98310.31;;;8.75;100.00
56944;BME280;42848;42.524;12.052;2022-12-19T09:20:21;98294.63;;;8.82;100.00
56944;BME280;42848;42.524;12.052;2022-12-19T09:22:47;98302.22;;;8.91;100.00
56944;BME280;42848;42.524;12.052;2022-12-19T09:25:12;98305.19;;;8.99;100.00
56944;BME280;42848;42.524;12.052;2022-12-19T09:27:38;98312.50;;;8.94;100.00
56944;BME280;42848;42.524;12.052;2022-12-19T09:30:05;98309.25;;;9.02;100.00
56944;BME280;42848;42.524;12.052;2022-12-19T09:32:30;98306.53;;;9.02;100.00
56944;BME280;42848;42.524;12.052;2022-12-19T09:34:56;98316.31;;;8.98;100.00
56944;BME280;42848;42.524;12.052;2022-12-19T09:37:22;98316.03;;;8.99;100.00
56944;BME280;42848;42.524;12.052;2022-12-19T09:39:47;98315.22;;;9.04;100.00
56944;BME280;42848;42.524;12.052;2022-12-19T09:44:55;98301.69;;;8.89;100.00
56944;BME280;42848;42.524;12.052;2022-12-19T09:47:28;98296.25;;;8.99;100.00
56944;BME280;42848;42.524;12.052;2022-12-19T09:49:56;98295.16;;;9.05;100.00
56944;BME280;42848;42.524;12.052;2022-12-19T09:52:29;98283.78;;;9.13;100.00
56944;BME280;42848;42.524;12.052;2022-12-19T09:55:04;98285.41;;;9.14;100.00
56944;BME280;42848;42.524;12.052;2022-12-19T09:57:40;98280.28;;;9.18;100.00
56944;BME280;42848;42.524;12.052;2022-12-19T10:00:20;98274.56;;;9.14;100.00
56944;BME280;42848;42.524;12.052;2022-12-19T10:02:53;98277.28;;;9.09;100.00
56944;BME280;42848;42.524;12.052;2022-12-19T10:05:31;98289.22;;;8.98;100.00
56944;BME280;42848;42.524;12.052;2022-12-19T10:07:58;98276.75;;;9.07;100.00
56944;BME280;42848;42.524;12.052;2022-12-19T10:19:03;98274.03;;;9.22;100.00
56944;BME280;42848;42.524;12.052;2022-12-19T10:24:42;98272.97;;;9.08;100.00
56944;BME280;42848;42.524;12.052;2022-12-19T10:34:55;98261.03;;;9.14;100.00
56944;BME280;42848;42.524;12.052;2022-12-19T10:37:25;98260.75;;;9.21;100.00
56944;BME280;42848;42.524;12.052;2022-12-19T10:40:18;98260.44;;;9.32;100.00
56944;BME280;42848;42.524;12.052;2022-12-19T10:43:17;98252.59;;;9.31;100.00
56944;BME280;42848;42.524;12.052;2022-12-19T10:45:53;98250.97;;;9.40;100.00
56944;BME280;42848;42.524;12.052;2022-12-19T10:48:21;98255.31;;;9.36;100.00
56944;BME280;42848;42.524;12.052;2022-12-19T10:50:47;98255.03;;;9.43;100.00
56944;BME280;42848;42.524;12.052;2022-12-19T10:53:14;98247.72;;;9.43;100.00
56944;BME280;42848;42.524;12.052;2022-12-19T10:55:46;98243.06;;;9.54;100.00
56944;BME280;42848;42.524;12.052;2022-12-19T10:58:18;98239.28;;;9.50;100.00
56944;BME280;42848;42.524;12.052;2022-12-19T11:03:27;98232.19;;;9.59;100.00
56944;BME280;42848;42.524;12.052;2022-12-19T11:05:55;98234.06;;;9.74;100.00
56944;BME280;42848;42.524;12.052;2022-12-19T11:08:27;98233.53;;;9.66;100.00
56944;BME280;42848;42.524;12.052;2022-12-19T11:16:00;98228.34;;;9.75;100.00
56944;BME280;42848;42.524;12.052;2022-12-19T11:18:36;98231.88;;;9.76;100.00
56944;BME280;42848;42.524;12.052;2022-12-19T11:23:59;98226.13;;;9.87;100.00
56944;BME280;42848;42.524;12.052;2022-12-19T11:29:40;98231.03;;;9.85;100.00
56944;BME280;42848;42.524;12.052;2022-12-19T11:32:21;98221.53;;;9.83;100.00
56944;BME280;42848;42.524;12.052;2022-12-19T11:34:49;98222.34;;;9.88;100.00
56944;BME280;42848;42.524;12.052;2022-12-19T11:37:32;98225.31;;;9.92;100.00
56944;BME280;42848;42.524;12.052;2022-12-19T11:40:05;98226.13;;;9.92;100.00
56944;BME280;42848;42.524;12.052;2022-12-19T11:42:49;98224.44;;;9.96;100.00
56944;BME280;42848;42.524;12.052;2022-12-19T11:48:07;98207.66;;;9.94;100.00
56944;BME280;42848;42.524;12.052;2022-12-19T11:50:53;98215.22;;;10.03;100.00
56944;BME280;42848;42.524;12.052;2022-12-19T11:58:29;98205.44;;;10.07;100.00
56944;BME280;42848;42.524;12.052;2022-12-19T12:06:19;98200.47;;;10.14;100.00
56944;BME280;42848;42.524;12.052;2022-12-19T12:08:54;98198.88;;;10.13;100.00
56944;BME280;42848;42.524;12.052;2022-12-19T12:16:55;98185.56;;;10.16;100.00
56944;BME280;42848;42.524;12.052;2022-12-19T12:22:42;98186.09;;;10.18;100.00
56944;BME280;42848;42.524;12.052;2022-12-19T12:25:41;98185.00;;;10.14;100.00
56944;BME280;42848;42.524;12.052;2022-12-19T12:28:37;98182.84;;;10.16;100.00
56944;BME280;42848;42.524;12.052;2022-12-19T12:34:22;98195.03;;;10.24;100.00
56944;BME280;42848;42.524;12.052;2022-12-19T12:40:31;98184.16;;;10.24;100.00
56944;BME280;42848;42.524;12.052;2022-12-19T12:45:45;98181.16;;;10.31;100.00
56944;BME280;42848;42.524;12.052;2022-12-19T12:48:27;98177.88;;;10.34;100.00
56944;BME280;42848;42.524;12.052;2022-12-19T12:50:54;98178.94;;;10.38;100.00
56944;BME280;42848;42.524;12.052;2022-12-19T12:53:25;98167.50;;;10.41;100.00
56944;BME280;42848;42.524;12.052;2022-12-19T12:55:55;98175.69;;;10.36;100.00
56944;BME280;42848;42.524;12.052;2022-12-19T13:01:29;98166.75;;;10.35;100.00
56944;BME280;42848;42.524;12.052;2022-12-19T13:04:04;98168.56;;;10.45;100.00
56944;BME280;42848;42.524;12.052;2022-12-19T13:11:47;98161.75;;;10.47;100.00
56944;BME280;42848;42.524;12.052;2022-12-19T13:24:57;98147.00;;;10.59;100.00
56944;BME280;42848;42.524;12.052;2022-12-19T13:27:39;98154.22;;;10.39;100.00
56944;BME280;42848;42.524;12.052;2022-12-19T13:37:50;98151.28;;;10.65;100.00
56944;BME280;42848;42.524;12.052;2022-12-19T13:43:10;98145.47;;;10.47;100.00
56944;BME280;42848;42.524;12.052;2022-12-19T13:46:01;98153.66;;;10.42;100.00
56944;BME280;42848;42.524;12.052;2022-12-19T13:48:42;98147.94;;;10.44;100.00
56944;BME280;42848;42.524;12.052;2022-12-19T13:51:10;98144.97;;;10.40;100.00
56944;BME280;42848;42.524;12.052;2022-12-19T13:53:37;98143.31;;;10.44;100.00
56944;BME280;42848;42.524;12.052;2022-12-19T13:56:14;98153.84;;;10.51;100.00
56944;BME280;42848;42.524;12.052;2022-12-19T13:58:47;98154.69;;;10.51;100.00
56944;BME280;42848;42.524;12.052;2022-12-19T14:01:34;98150.81;;;10.58;100.00
56944;BME280;42848;42.524;12.052;2022-12-19T14:06:46;98158.34;;;10.66;100.00
56944;BME280;42848;42.524;12.052;2022-12-19T14:09:34;98156.91;;;10.44;100.00
56944;BME280;42848;42.524;12.052;2022-12-19T14:12:05;98150.56;;;10.54;100.00
56944;BME280;42848;42.524;12.052;2022-12-19T14:14:32;98149.69;;;10.64;100.00
56944;BME280;42848;42.524;12.052;2022-12-19T14:17:19;98154.09;;;10.54;100.00
56944;BME280;42848;42.524;12.052;2022-12-19T14:19:50;98155.50;;;10.47;100.00
56944;BME280;42848;42.524;12.052;2022-12-19T14:22:22;98152.81;;;10.42;100.00
56944;BME280;42848;42.524;12.052;2022-12-19T14:24:53;98155.22;;;10.48;100.00
56944;BME280;42848;42.524;12.052;2022-12-19T14:27:26;98154.53;;;10.67;100.00
56944;BME280;42848;42.524;12.052;2022-12-19T14:29:54;98149.41;;;10.60;100.00
56944;BME280;42848;42.524;12.052;2022-12-19T14:32:21;98153.56;;;10.52;100.00
56944;BME280;42848;42.524;12.052;2022-12-19T14:34:48;98154.41;;;10.82;100.00
56944;BME280;42848;42.524;12.052;2022-12-19T14:37:32;98140.22;;;10.85;100.00
56944;BME280;42848;42.524;12.052;2022-12-19T14:39:59;98158.22;;;10.81;100.00
56944;BME280;42848;42.524;12.052;2022-12-19T14:42:30;98155.53;;;10.76;100.00
56944;BME280;42848;42.524;12.052;2022-12-19T14:45:41;98158.13;;;10.91;100.00
56944;BME280;42848;42.524;12.052;2022-12-19T14:51:12;98154.91;;;10.84;100.00
56944;BME280;42848;42.524;12.052;2022-12-19T14:53:39;98152.97;;;10.90;100.00
56944;BME280;42848;42.524;12.052;2022-12-19T14:56:24;98152.28;;;10.74;100.00
56944;BME280;42848;42.524;12.052;2022-12-19T14:58:56;98160.16;;;10.75;100.00
56944;BME280;42848;42.524;12.052;2022-12-19T15:01:27;98160.22;;;10.70;100.00
56944;BME280;42848;42.524;12.052;2022-12-19T15:03:59;98153.13;;;10.69;100.00
56944;BME280;42848;42.524;12.052;2022-12-19T15:06:28;98156.16;;;10.68;100.00
56944;BME280;42848;42.524;12.052;2022-12-19T15:09:02;98152.69;;;10.62;100.00
56944;BME280;42848;42.524;12.052;2022-12-19T15:11:33;98156.22;;;10.58;100.00
56944;BME280;42848;42.524;12.052;2022-12-19T15:14:38;98145.97;;;10.54;100.00